createdAt,value
2022-11-15T00:00:35.257Z,6.20
2022-11-15T00:03:02.777Z,6.50
2022-11-15T00:05:29.596Z,8.35
2022-11-15T00:07:56.537Z,6.20
2022-11-15T00:10:22.662Z,5.85
2022-11-15T00:12:51.802Z,6.65
2022-11-15T00:15:19.063Z,7.03
2022-11-15T00:17:45.608Z,7.13
2022-11-15T00:20:14.877Z,5.78
2022-11-15T00:22:41.137Z,8.93
2022-11-15T00:25:09.421Z,6.70
2022-11-15T00:27:36.101Z,5.97
2022-11-15T00:30:04.977Z,7.05
2022-11-15T00:32:35.348Z,7.32
2022-11-15T00:35:01.823Z,6.00
2022-11-15T00:37:28.375Z,6.35
2022-11-15T00:39:54.876Z,6.50
2022-11-15T00:42:21.415Z,6.10
2022-11-15T00:44:47.818Z,6.68
2022-11-15T00:47:17.112Z,8.55
2022-11-15T00:49:43.776Z,5.47
2022-11-15T00:52:10.248Z,6.65
2022-11-15T00:54:36.922Z,6.03
2022-11-15T00:57:03.279Z,8.13
2022-11-15T00:59:30.004Z,6.75
2022-11-15T01:01:57.533Z,7.50
2022-11-15T01:04:27.796Z,8.80
2022-11-15T01:06:54.661Z,5.60
2022-11-15T01:09:21.199Z,6.88
2022-11-15T01:11:48.833Z,7.13
2022-11-15T01:14:15.322Z,7.57
2022-11-15T01:16:41.805Z,7.32
2022-11-15T01:19:08.741Z,7.03
2022-11-15T01:21:37.873Z,6.75
2022-11-15T01:24:05.324Z,6.55
2022-11-15T01:26:31.510Z,6.15
2022-11-15T01:28:57.801Z,6.65
2022-11-15T01:31:25.355Z,5.90
2022-11-15T01:33:52.183Z,6.60
2022-11-15T01:36:22.769Z,5.15
2022-11-15T01:38:57.211Z,5.90
2022-11-15T01:41:26.203Z,5.60
2022-11-15T01:43:55.886Z,5.97
2022-11-15T01:46:30.987Z,6.35
2022-11-15T01:49:00.660Z,8.90
2022-11-15T01:51:30.674Z,6.50
2022-11-15T01:54:05.990Z,9.40
2022-11-15T01:56:36.339Z,7.40
2022-11-15T01:59:06.794Z,9.27
2022-11-15T02:01:36.372Z,7.05
2022-11-15T02:04:05.038Z,8.13
2022-11-15T02:06:31.299Z,10.18
2022-11-15T02:09:01.296Z,7.63
2022-11-15T02:11:28.219Z,6.85
2022-11-15T02:13:55.899Z,7.72
2022-11-15T02:16:32.710Z,7.10
2022-11-15T02:19:06.638Z,8.40
2022-11-15T02:21:47.977Z,7.75
2022-11-15T02:24:53.437Z,8.32
2022-11-15T02:27:45.944Z,9.25
2022-11-15T02:30:25.214Z,8.32
2022-11-15T02:32:57.008Z,7.93
2022-11-15T02:35:32.530Z,9.25
2022-11-15T02:38:02.326Z,10.40
2022-11-15T02:40:38.402Z,8.70
2022-11-15T02:43:24.218Z,8.25
2022-11-15T02:45:57.712Z,15.18
2022-11-15T02:48:26.395Z,10.57
2022-11-15T02:50:53.060Z,9.63
2022-11-15T02:53:19.903Z,9.90
2022-11-15T02:55:49.905Z,9.35
2022-11-15T02:58:39.253Z,9.77
2022-11-15T03:01:16.441Z,10.88
2022-11-15T03:03:56.615Z,10.30
2022-11-15T03:06:31.966Z,9.77
2022-11-15T03:09:06.952Z,10.88
2022-11-15T03:11:36.346Z,10.43
2022-11-15T03:14:10.441Z,10.13
2022-11-15T03:16:45.919Z,10.45
2022-11-15T03:19:17.856Z,11.98
2022-11-15T03:21:45.038Z,12.00
2022-11-15T03:24:13.632Z,11.07
2022-11-15T03:26:43.471Z,10.50
2022-11-15T03:29:16.421Z,13.63
2022-11-15T03:31:51.865Z,11.05
2022-11-15T03:34:26.598Z,11.55
2022-11-15T03:36:56.851Z,12.35
2022-11-15T03:39:24.882Z,14.52
2022-11-15T03:41:54.869Z,14.48
2022-11-15T03:44:34.145Z,14.65
2022-11-15T03:47:10.328Z,14.98
2022-11-15T03:49:39.403Z,20.90
2022-11-15T03:52:08.018Z,14.43
2022-11-15T03:54:35.733Z,13.82
2022-11-15T03:57:02.017Z,12.93
2022-11-15T03:59:28.262Z,14.18
2022-11-15T04:02:04.641Z,13.95
2022-11-15T04:04:30.850Z,13.18
2022-11-15T04:06:57.648Z,12.75
2022-11-15T04:09:23.836Z,14.50
2022-11-15T04:11:50.405Z,16.77
2022-11-15T04:14:16.866Z,15.07
2022-11-15T04:16:44.131Z,14.52
2022-11-15T04:19:25.996Z,14.48
2022-11-15T04:22:06.430Z,17.70
2022-11-15T04:24:32.611Z,13.75
2022-11-15T04:26:59.308Z,14.75
2022-11-15T04:29:38.115Z,11.90
2022-11-15T04:32:04.114Z,12.63
2022-11-15T04:34:34.602Z,10.73
2022-11-15T04:37:17.181Z,13.55
2022-11-15T04:39:43.888Z,11.10
2022-11-15T04:42:10.589Z,10.18
2022-11-15T04:44:36.607Z,12.18
2022-11-15T04:47:03.230Z,13.55
2022-11-15T04:49:32.313Z,10.07
2022-11-15T04:51:58.513Z,9.63
2022-11-15T04:54:24.829Z,9.15
2022-11-15T04:56:51.164Z,8.70
2022-11-15T04:59:17.632Z,9.57
2022-11-15T05:01:45.270Z,9.15
2022-11-15T05:04:21.749Z,9.13
2022-11-15T05:06:52.121Z,11.85
2022-11-15T05:09:18.417Z,10.00
2022-11-15T05:11:48.006Z,10.70
2022-11-15T05:14:14.698Z,11.00
2022-11-15T05:16:41.489Z,11.38
2022-11-15T05:19:09.132Z,8.93
2022-11-15T05:21:37.264Z,11.45
2022-11-15T05:24:07.221Z,9.90
2022-11-15T05:26:34.776Z,9.18
2022-11-15T05:29:03.506Z,9.65
2022-11-15T05:31:31.735Z,9.75
2022-11-15T05:34:00.363Z,9.50
2022-11-15T05:36:33.203Z,10.15
2022-11-15T05:39:00.108Z,11.05
2022-11-15T05:41:34.335Z,13.52
2022-11-15T05:44:02.063Z,11.52
2022-11-15T05:46:28.277Z,10.85
2022-11-15T05:48:56.977Z,10.63
2022-11-15T05:51:26.462Z,11.60
2022-11-15T05:53:54.158Z,11.07
2022-11-15T05:56:20.639Z,9.85
2022-11-15T05:58:53.453Z,9.50
2022-11-15T06:01:21.838Z,11.02
2022-11-15T06:03:48.266Z,10.57
2022-11-15T06:06:16.513Z,11.27
2022-11-15T06:08:42.977Z,9.82
2022-11-15T06:11:10.340Z,9.63
2022-11-15T06:13:37.250Z,11.95
2022-11-15T06:16:06.704Z,8.75
2022-11-15T06:18:36.254Z,9.90
2022-11-15T06:21:04.167Z,12.25
2022-11-15T06:23:31.272Z,9.70
2022-11-15T06:25:57.852Z,11.02
2022-11-15T06:28:24.306Z,9.65
2022-11-15T06:30:53.298Z,9.20
2022-11-15T06:33:22.639Z,10.35
2022-11-15T06:35:49.953Z,10.13
2022-11-15T06:38:16.232Z,10.35
2022-11-15T06:40:43.165Z,10.02
2022-11-15T06:43:10.386Z,9.77
2022-11-15T06:45:36.952Z,11.77
2022-11-15T06:48:06.385Z,9.48
2022-11-15T06:50:35.537Z,9.80
2022-11-15T06:53:06.178Z,11.10
2022-11-15T06:55:33.200Z,11.93
2022-11-15T06:58:00.473Z,10.48
2022-11-15T07:00:27.597Z,8.80
2022-11-15T07:02:54.169Z,11.13
2022-11-15T07:05:22.959Z,10.25
2022-11-15T07:07:59.277Z,10.32
2022-11-15T07:10:31.419Z,10.25
2022-11-15T07:13:00.094Z,8.90
2022-11-15T07:15:28.860Z,9.55
2022-11-15T07:17:55.347Z,9.95
2022-11-15T07:20:23.256Z,10.20
2022-11-15T07:22:49.657Z,14.32
2022-11-15T07:25:19.084Z,12.23
2022-11-15T07:27:45.837Z,11.40
2022-11-15T07:30:15.565Z,12.95
2022-11-15T07:32:42.313Z,9.88
2022-11-15T07:35:11.388Z,10.15
2022-11-15T07:37:39.246Z,9.68
2022-11-15T07:40:07.836Z,9.27
2022-11-15T07:42:50.263Z,9.10
2022-11-15T07:45:16.634Z,9.82
2022-11-15T07:47:44.443Z,9.98
2022-11-15T07:50:11.523Z,10.80
2022-11-15T07:52:37.665Z,9.65
2022-11-15T07:55:05.291Z,11.30
2022-11-15T07:57:31.498Z,10.93
2022-11-15T08:00:01.000Z,11.30
2022-11-15T08:02:30.431Z,10.02
2022-11-15T08:04:57.450Z,9.45
2022-11-15T08:07:24.482Z,9.98
2022-11-15T08:09:51.071Z,9.90
2022-11-15T08:12:18.565Z,9.90
2022-11-15T08:14:46.197Z,9.18
2022-11-15T08:17:15.243Z,9.60
2022-11-15T08:19:43.009Z,9.02
2022-11-15T08:22:09.485Z,10.45
2022-11-15T08:24:36.111Z,9.77
2022-11-15T08:27:02.553Z,9.88
2022-11-15T08:29:28.816Z,9.35
2022-11-15T08:31:54.936Z,9.43
2022-11-15T08:34:24.533Z,8.65
2022-11-15T08:36:50.943Z,11.15
2022-11-15T08:39:17.559Z,9.15
2022-11-15T08:41:43.458Z,17.77
2022-11-15T08:44:09.822Z,9.75
2022-11-15T08:46:36.542Z,12.07
2022-11-15T08:49:03.030Z,10.40
2022-11-15T08:51:32.209Z,9.95
2022-11-15T08:53:58.738Z,10.18
2022-11-15T08:56:26.207Z,10.82
2022-11-15T08:58:52.637Z,9.80
2022-11-15T09:01:22.139Z,9.55
2022-11-15T09:03:48.966Z,11.73
2022-11-15T09:06:16.337Z,10.70
2022-11-15T09:08:48.262Z,14.27
2022-11-15T09:11:15.693Z,12.45
2022-11-15T09:13:42.446Z,12.30
2022-11-15T09:16:09.484Z,8.27
2022-11-15T09:18:37.531Z,10.45
2022-11-15T09:21:04.714Z,11.15
2022-11-15T09:23:31.107Z,10.70
2022-11-15T09:26:03.918Z,12.85
2022-11-15T09:28:30.632Z,8.80
2022-11-15T09:31:00.350Z,8.68
2022-11-15T09:33:27.089Z,7.32
2022-11-15T09:35:53.290Z,7.90
2022-11-15T09:38:19.920Z,8.52
2022-11-15T09:40:46.323Z,8.35
2022-11-15T09:43:35.632Z,8.63
2022-11-15T09:46:13.045Z,7.85
2022-11-15T09:49:03.741Z,8.23
2022-11-15T09:51:30.858Z,8.93
2022-11-15T09:56:20.644Z,7.68
2022-11-15T09:58:40.429Z,7.78
2022-11-15T10:00:53.903Z,8.60
2022-11-15T10:03:16.285Z,7.18
2022-11-15T10:05:27.085Z,8.40
2022-11-15T10:07:44.851Z,6.88
2022-11-15T10:09:59.234Z,7.05
2022-11-15T10:12:07.386Z,9.20
2022-11-15T10:14:21.425Z,7.88
2022-11-15T10:17:03.939Z,8.00
2022-11-15T10:19:20.041Z,8.23
2022-11-15T10:21:46.932Z,8.10
2022-11-15T10:23:57.079Z,8.27
2022-11-15T10:26:23.962Z,9.60
2022-11-15T10:28:34.249Z,6.60
2022-11-15T10:30:47.334Z,6.38
2022-11-15T10:32:55.097Z,7.28
2022-11-15T10:35:03.531Z,6.63
2022-11-15T10:37:11.937Z,6.43
2022-11-15T10:39:20.954Z,6.68
2022-11-15T10:41:43.916Z,7.85
2022-11-15T10:44:18.758Z,6.97
2022-11-15T10:46:46.099Z,7.90
2022-11-15T10:48:55.080Z,9.45
2022-11-15T10:51:02.972Z,6.72
2022-11-15T10:53:19.393Z,8.10
2022-11-15T10:55:33.508Z,7.82
2022-11-15T10:57:42.711Z,7.18
2022-11-15T10:59:52.756Z,6.95
2022-11-15T11:02:03.930Z,7.47
2022-11-15T11:04:14.180Z,7.40
2022-11-15T11:06:22.494Z,7.85
2022-11-15T11:08:31.328Z,7.40
2022-11-15T11:11:03.127Z,7.85
2022-11-15T11:13:19.431Z,9.65
2022-11-15T11:15:33.833Z,9.80
2022-11-15T11:18:01.033Z,14.40
2022-11-15T11:20:21.065Z,9.00
2022-11-15T11:23:10.949Z,8.98
2022-11-15T11:25:32.821Z,9.07
2022-11-15T11:27:51.344Z,9.23
2022-11-15T11:30:07.595Z,9.27
2022-11-15T11:32:38.236Z,7.82
2022-11-15T11:35:02.273Z,9.20
2022-11-15T11:37:19.854Z,8.50
2022-11-15T11:39:35.251Z,8.90
2022-11-15T11:41:57.461Z,9.68
2022-11-15T11:44:22.392Z,10.43
2022-11-15T11:46:52.553Z,9.70
2022-11-15T11:49:07.176Z,9.75
2022-11-15T11:51:24.229Z,9.77
2022-11-15T11:53:42.031Z,9.20
2022-11-15T11:55:53.801Z,8.57
2022-11-15T11:58:09.322Z,9.13
2022-11-15T12:00:24.461Z,8.65
2022-11-15T12:02:37.159Z,11.43
2022-11-15T12:04:49.357Z,8.77
2022-11-15T12:07:07.873Z,9.18
2022-11-15T12:09:20.785Z,8.65
2022-11-15T12:11:34.442Z,8.85
2022-11-15T12:13:43.788Z,9.48
2022-11-15T12:16:02.889Z,8.43
2022-11-15T12:18:17.410Z,8.57
2022-11-15T12:20:28.590Z,9.13
2022-11-15T12:22:51.388Z,8.35
2022-11-15T12:25:07.098Z,10.40
2022-11-15T12:27:26.335Z,11.05
2022-11-15T12:29:43.926Z,9.35
2022-11-15T12:31:56.747Z,8.10
2022-11-15T12:34:07.679Z,8.73
2022-11-15T12:36:34.494Z,10.40
2022-11-15T12:39:01.438Z,9.35
2022-11-15T12:41:27.575Z,8.98
2022-11-15T12:43:44.903Z,11.48
2022-11-15T12:45:52.854Z,10.18
2022-11-15T12:48:32.307Z,9.90
2022-11-15T12:50:59.215Z,10.00
2022-11-15T12:53:32.439Z,9.32
2022-11-15T12:55:43.289Z,9.75
2022-11-15T12:57:52.455Z,9.55
2022-11-15T13:00:03.377Z,9.23
2022-11-15T13:02:22.347Z,10.73
2022-11-15T13:04:33.065Z,8.85
2022-11-15T13:06:46.299Z,11.27
2022-11-15T13:08:55.627Z,10.70
2022-11-15T13:11:41.251Z,10.65
2022-11-15T13:13:49.478Z,11.10
2022-11-15T13:16:02.462Z,10.38
2022-11-15T13:18:34.153Z,10.88
2022-11-15T13:20:42.565Z,11.38
2022-11-15T13:22:51.950Z,10.70
2022-11-15T13:25:00.409Z,9.70
2022-11-15T13:27:21.999Z,11.48
2022-11-15T13:29:31.131Z,9.45
2022-11-15T13:31:40.961Z,10.23
2022-11-15T13:33:49.207Z,11.07
2022-11-15T13:36:00.244Z,9.30
2022-11-15T13:38:10.194Z,9.35
2022-11-15T13:40:28.510Z,11.48
2022-11-15T13:42:43.111Z,10.48
2022-11-15T13:45:01.208Z,9.13
2022-11-15T13:47:11.245Z,9.43
2022-11-15T13:49:19.071Z,9.50
2022-11-15T13:51:33.998Z,9.65
2022-11-15T13:53:48.018Z,10.20
2022-11-15T13:56:04.480Z,14.07
2022-11-15T13:58:17.850Z,12.20
2022-11-15T14:00:38.708Z,10.55
2022-11-15T14:02:46.735Z,9.10
2022-11-15T14:04:56.998Z,9.90
2022-11-15T14:07:06.347Z,9.07
2022-11-15T14:09:35.756Z,8.52
2022-11-15T14:11:54.031Z,8.77
2022-11-15T14:14:19.475Z,8.98
2022-11-15T14:16:37.868Z,8.50
2022-11-15T14:18:49.930Z,7.70
2022-11-15T14:21:10.377Z,9.10
2022-11-15T14:23:27.889Z,8.70
2022-11-15T14:25:37.030Z,8.93
2022-11-15T14:27:46.606Z,9.13
2022-11-15T14:29:57.716Z,10.10
2022-11-15T14:32:18.910Z,9.77
2022-11-15T14:34:26.671Z,9.13
2022-11-15T14:36:34.577Z,8.38
2022-11-15T14:38:43.914Z,9.63
2022-11-15T14:40:53.167Z,9.23
2022-11-15T14:43:03.483Z,8.68
2022-11-15T14:45:19.178Z,9.85
2022-11-15T14:47:27.349Z,10.20
2022-11-15T14:49:36.678Z,10.48
2022-11-15T14:51:44.784Z,9.48
2022-11-15T14:53:53.260Z,9.68
2022-11-15T14:56:01.120Z,11.27
2022-11-15T14:58:11.610Z,14.45
2022-11-15T15:00:23.795Z,11.20
2022-11-15T15:02:32.702Z,12.38
2022-11-15T15:04:40.522Z,11.50
2022-11-15T15:06:49.620Z,12.07
2022-11-15T15:08:58.663Z,11.10
2022-11-15T15:11:12.231Z,12.43
2022-11-15T15:13:22.910Z,12.75
2022-11-15T15:15:38.115Z,11.18
2022-11-15T15:17:46.487Z,11.48
2022-11-15T15:19:54.429Z,11.52
2022-11-15T15:22:02.325Z,11.82
2022-11-15T15:24:12.547Z,11.15
2022-11-15T15:26:20.415Z,11.80
2022-11-15T15:28:33.090Z,11.15
2022-11-15T15:30:46.488Z,12.15
2022-11-15T15:32:55.566Z,10.65
2022-11-15T15:35:03.369Z,11.32
2022-11-15T15:37:12.766Z,12.50
2022-11-15T15:39:20.803Z,11.48
2022-11-15T15:41:29.076Z,11.80
2022-11-15T15:43:37.459Z,12.30
2022-11-15T15:45:48.859Z,11.07
2022-11-15T15:47:56.941Z,12.27
2022-11-15T15:50:05.047Z,12.20
2022-11-15T15:52:12.889Z,12.02
2022-11-15T15:54:20.997Z,13.00
2022-11-15T15:56:31.646Z,12.73
2022-11-15T15:58:39.719Z,12.82
2022-11-15T16:00:50.263Z,11.77
2022-11-15T16:02:58.086Z,12.35
2022-11-15T16:05:05.898Z,11.05
2022-11-15T16:07:21.293Z,12.02
2022-11-15T16:09:41.455Z,12.63
2022-11-15T16:11:50.466Z,15.32
2022-11-15T16:13:58.331Z,12.07
2022-11-15T16:16:16.647Z,10.52
2022-11-15T16:18:24.491Z,9.70
2022-11-15T16:20:38.776Z,9.93
2022-11-15T16:22:46.638Z,10.27
2022-11-15T16:24:54.954Z,12.80
2022-11-15T16:27:02.929Z,9.27
2022-11-15T16:29:12.117Z,9.80
2022-11-15T16:31:25.042Z,8.88
2022-11-15T16:33:33.613Z,9.65
2022-11-15T16:35:41.971Z,9.02
2022-11-15T16:37:51.673Z,9.57
2022-11-15T16:40:01.131Z,9.88
2022-11-15T16:42:11.971Z,9.52
2022-11-15T16:44:20.085Z,9.18
2022-11-15T16:46:31.830Z,8.57
2022-11-15T16:48:40.276Z,10.18
2022-11-15T16:50:48.134Z,8.93
2022-11-15T16:52:57.845Z,9.00
2022-11-15T16:55:06.963Z,10.45
2022-11-15T16:57:16.678Z,10.10
2022-11-15T16:59:24.453Z,9.60
2022-11-15T17:01:36.500Z,9.63
2022-11-15T17:03:46.749Z,10.25
2022-11-15T17:05:55.291Z,8.82
2022-11-15T17:08:03.445Z,9.32
2022-11-15T17:10:14.415Z,10.73
2022-11-15T17:12:22.446Z,17.52
2022-11-15T17:14:30.426Z,10.88
2022-11-15T17:16:42.663Z,12.45
2022-11-15T17:18:54.420Z,11.50
2022-11-15T17:21:07.057Z,10.57
2022-11-15T17:23:23.749Z,9.00
2022-11-15T17:25:35.718Z,9.57
2022-11-15T17:27:53.837Z,9.88
2022-11-15T17:30:02.607Z,8.45
2022-11-15T17:32:15.111Z,8.90
2022-11-15T17:34:23.691Z,9.02
2022-11-15T17:36:31.889Z,9.40
2022-11-15T17:38:39.804Z,9.50
2022-11-15T17:40:49.043Z,8.60
2022-11-15T17:42:57.564Z,8.52
2022-11-15T17:45:09.925Z,9.60
2022-11-15T17:47:22.096Z,10.00
2022-11-15T17:49:29.933Z,10.35
2022-11-15T17:51:38.068Z,10.73
2022-11-15T17:53:51.669Z,10.45
2022-11-15T17:56:04.574Z,12.57
2022-11-15T17:58:12.538Z,11.32
2022-11-15T18:00:21.826Z,11.68
2022-11-15T18:02:33.391Z,11.23
2022-11-15T18:04:41.363Z,10.50
2022-11-15T18:06:50.769Z,12.32
2022-11-15T18:08:59.081Z,12.02
2022-11-15T18:11:12.352Z,10.98
2022-11-15T18:13:20.476Z,12.45
2022-11-15T18:15:28.303Z,12.85
2022-11-15T18:17:38.766Z,12.55
2022-11-15T18:19:46.712Z,12.05
2022-11-15T18:22:01.957Z,11.32
2022-11-15T18:24:10.648Z,13.10
2022-11-15T18:26:26.631Z,14.98
2022-11-15T18:28:37.374Z,12.82
2022-11-15T18:30:45.264Z,12.18
2022-11-15T18:32:55.734Z,13.10
2022-11-15T18:35:04.687Z,12.32
2022-11-15T18:37:12.616Z,13.10
2022-11-15T18:39:20.581Z,12.70
2022-11-15T18:41:29.555Z,12.07
2022-11-15T18:43:38.938Z,14.30
2022-11-15T18:45:48.224Z,12.77
2022-11-15T18:47:59.434Z,14.60
2022-11-15T18:50:07.951Z,15.23
2022-11-15T18:52:17.219Z,13.45
2022-11-15T18:54:30.698Z,12.23
2022-11-15T18:56:39.667Z,12.23
2022-11-15T18:58:50.460Z,12.07
2022-11-15T19:01:03.860Z,13.45
2022-11-15T19:03:14.466Z,13.13
2022-11-15T19:05:23.392Z,12.25
2022-11-15T19:07:31.363Z,12.40
2022-11-15T19:09:39.234Z,11.60
2022-11-15T19:11:48.875Z,12.30
2022-11-15T19:13:58.953Z,13.77
2022-11-15T19:16:08.269Z,12.55
2022-11-15T19:18:19.122Z,12.60
2022-11-15T19:20:27.003Z,15.73
2022-11-15T19:22:34.920Z,14.48
2022-11-15T19:24:42.848Z,13.90
2022-11-15T19:26:50.823Z,12.70
2022-11-15T19:29:00.894Z,13.52
2022-11-15T19:31:09.653Z,13.60
2022-11-15T19:33:26.518Z,14.48
2022-11-15T19:35:35.672Z,12.00
2022-11-15T19:37:43.929Z,13.68
2022-11-15T19:39:51.899Z,14.30
2022-11-15T19:41:59.757Z,11.25
2022-11-15T19:44:08.885Z,11.68
2022-11-15T19:46:18.198Z,10.98
2022-11-15T19:48:32.856Z,11.55
2022-11-15T19:50:40.873Z,11.95
2022-11-15T19:52:55.610Z,12.18
2022-11-15T19:55:05.283Z,11.68
2022-11-15T19:57:14.440Z,14.50
2022-11-15T19:59:23.159Z,12.63
2022-11-15T20:01:32.596Z,12.80
2022-11-15T20:03:44.578Z,14.32
2022-11-15T20:05:55.627Z,12.23
2022-11-15T20:08:03.901Z,14.15
2022-11-15T20:10:15.689Z,14.05
2022-11-15T20:12:28.914Z,13.70
2022-11-15T20:14:37.986Z,13.13
2022-11-15T20:16:52.940Z,13.77
2022-11-15T20:19:08.309Z,13.43
2022-11-15T20:21:16.810Z,12.90
2022-11-15T20:23:29.052Z,13.35
2022-11-15T20:25:41.848Z,13.93
2022-11-15T20:27:52.703Z,14.82
2022-11-15T20:30:00.842Z,13.85
2022-11-15T20:32:12.205Z,13.68
2022-11-15T20:34:23.249Z,13.70
2022-11-15T20:36:31.503Z,13.95
2022-11-15T20:38:39.744Z,12.80
2022-11-15T20:40:56.003Z,11.57
2022-11-15T20:43:07.501Z,13.75
2022-11-15T20:45:17.348Z,12.25
2022-11-15T20:47:30.100Z,13.95
2022-11-15T20:49:40.765Z,13.30
2022-11-15T20:51:48.657Z,14.40
2022-11-15T20:53:56.478Z,12.68
2022-11-15T20:56:10.412Z,12.95
2022-11-15T20:58:19.519Z,11.57
2022-11-15T21:00:27.534Z,12.68
2022-11-15T21:02:35.594Z,13.98
2022-11-15T21:04:46.225Z,11.18
2022-11-15T21:06:54.118Z,11.90
2022-11-15T21:09:14.358Z,11.13
2022-11-15T21:11:35.086Z,10.63
2022-11-15T21:13:44.273Z,11.82
2022-11-15T21:15:52.094Z,11.15
2022-11-15T21:17:59.987Z,11.98
2022-11-15T21:20:15.912Z,10.45
2022-11-15T21:22:38.449Z,10.50
2022-11-15T21:24:47.296Z,9.82
2022-11-15T21:26:55.299Z,12.57
2022-11-15T21:29:03.185Z,11.18
2022-11-15T21:31:12.106Z,12.10
2022-11-15T21:33:21.588Z,13.73
2022-11-15T21:35:33.332Z,13.73
2022-11-15T21:37:42.151Z,14.32
2022-11-15T21:39:50.078Z,13.10
2022-11-15T21:41:59.194Z,12.73
2022-11-15T21:44:07.897Z,12.88
2022-11-15T21:46:16.101Z,12.32
2022-11-15T21:48:23.927Z,14.52
2022-11-15T21:50:34.416Z,12.65
2022-11-15T21:52:42.396Z,12.93
2022-11-15T21:54:50.249Z,12.30
2022-11-15T21:56:58.753Z,13.23
2022-11-15T21:59:06.665Z,12.98
2022-11-15T22:01:27.081Z,12.65
2022-11-15T22:03:34.987Z,18.55
2022-11-15T22:05:47.235Z,14.80
2022-11-15T22:07:55.154Z,13.23
2022-11-15T22:10:03.200Z,13.27
2022-11-15T22:12:11.132Z,12.18
2022-11-15T22:14:19.052Z,15.13
2022-11-15T22:16:26.912Z,12.55
2022-11-15T22:18:35.488Z,13.55
2022-11-15T22:20:56.523Z,12.40
2022-11-15T22:23:04.696Z,11.57
2022-11-15T22:25:12.629Z,14.93
2022-11-15T22:27:20.658Z,12.38
2022-11-15T22:29:29.214Z,13.85
2022-11-15T22:31:37.145Z,13.80
2022-11-15T22:33:45.585Z,15.18
2022-11-15T22:35:56.628Z,15.02
2022-11-15T22:38:04.686Z,15.13
2022-11-15T22:40:13.612Z,13.88
2022-11-15T22:42:23.949Z,16.08
2022-11-15T22:44:32.259Z,12.82
2022-11-15T22:46:40.312Z,13.73
2022-11-15T22:48:48.285Z,14.15
2022-11-15T22:50:59.329Z,13.30
2022-11-15T22:53:07.298Z,13.07
2022-11-15T22:55:15.943Z,14.50
2022-11-15T22:57:25.172Z,13.93
2022-11-15T22:59:33.172Z,14.68
2022-11-15T23:01:41.127Z,13.25
2022-11-15T23:03:49.167Z,15.07
2022-11-15T23:06:04.579Z,13.35
2022-11-15T23:08:13.021Z,15.07
2022-11-15T23:10:33.694Z,15.38
2022-11-15T23:12:53.983Z,15.55
2022-11-15T23:15:03.058Z,15.52
2022-11-15T23:17:09.739Z,14.48
2022-11-15T23:19:17.845Z,15.75
2022-11-15T23:21:42.523Z,15.18
2022-11-15T23:23:52.003Z,16.35
2022-11-15T23:26:03.411Z,15.00
2022-11-15T23:28:11.515Z,16.42
2022-11-15T23:30:32.786Z,14.75
2022-11-15T23:32:53.129Z,15.90
2022-11-15T23:35:01.192Z,17.98
2022-11-15T23:37:13.324Z,16.92
2022-11-15T23:39:23.120Z,16.23
2022-11-15T23:41:31.083Z,17.48
2022-11-15T23:43:39.233Z,17.15
2022-11-15T23:45:47.457Z,17.20
2022-11-15T23:48:00.995Z,15.85
2022-11-15T23:50:10.676Z,15.63
2022-11-15T23:52:23.220Z,15.00
2022-11-15T23:54:31.734Z,16.08
2022-11-15T23:56:39.900Z,14.95
2022-11-15T23:58:48.949Z,15.60
